Time;durP1;ratioP1;P1;durP2;ratioP2;P2;SDS_P1;SDS_P2;PMS_P1;PMS_P2;Temp;Humidity;BMP_temperature;BMP_pressure;BME280_temperature;BME280_humidity;BME280_pressure;Samples;Min_cycle;Max_cycle;Signal;HPM_P1;HPM_P2
2022/07/07 00:02:06;;;;;;;1.20;1.20;;;;;;;12.92;69.59;100107.69;215056;1274;140385;-64
2022/07/07 00:07:09;;;;;;;1.30;1.00;;;;;;;12.90;69.71;100101.67;216090;1272;140869;-61
2022/07/07 00:12:12;;;;;;;1.80;1.20;;;;;;;12.91;69.73;100102.92;215988;1273;151208;-62
2022/07/07 00:17:14;;;;;;;1.90;1.30;;;;;;;12.98;70.26;100102.13;216418;1273;142293;-62
2022/07/07 00:22:18;;;;;;;1.40;0.90;;;;;;;13.03;70.07;100099.02;216225;1274;140890;-62
2022/07/07 00:27:20;;;;;;;4.30;1.10;;;;;;;13.03;70.04;100092.44;216135;1273;142885;-63
2022/07/07 00:32:23;;;;;;;4.10;1.60;;;;;;;13.11;70.69;100093.10;216041;1272;140343;-62
2022/07/07 00:37:25;;;;;;;1.70;1.20;;;;;;;13.28;70.61;100095.59;214530;1274;140767;-62
2022/07/07 00:42:29;;;;;;;1.00;1.00;;;;;;;13.31;70.23;100090.36;213296;1274;143458;-63
2022/07/07 00:47:32;;;;;;;1.40;1.00;;;;;;;13.26;70.64;100086.57;213489;1273;142177;-63
2022/07/07 00:52:35;;;;;;;1.50;1.00;;;;;;;13.32;70.78;100085.98;213796;1274;142948;-62
2022/07/07 00:57:38;;;;;;;0.90;0.90;;;;;;;13.31;70.83;100088.38;213526;1274;163624;-63
2022/07/07 01:02:45;;;;;;;3.20;1.30;;;;;;;13.35;71.21;100084.05;213303;1273;141353;-62
2022/07/07 01:07:50;;;;;;;;;;;;;;;13.34;71.03;100080.07;213636;1273;141031;-63
2022/07/07 01:12:53;;;;;;;1.40;1.30;;;;;;;13.16;71.30;100081.73;214175;1274;127285;-63
2022/07/07 01:17:56;;;;;;;1.50;1.40;;;;;;;13.06;71.62;100084.67;213583;1274;141343;-61
2022/07/07 01:23:00;;;;;;;3.50;1.20;;;;;;;13.10;72.00;100076.60;213463;1274;141526;-62
2022/07/07 01:28:02;;;;;;;2.80;1.20;;;;;;;13.08;72.08;100076.41;213628;1274;141330;-65
2022/07/07 01:33:05;;;;;;;2.60;1.30;;;;;;;13.08;72.35;100073.36;213312;1274;141682;-63
2022/07/07 01:38:08;;;;;;;5.60;1.30;;;;;;;13.13;72.73;100073.19;213736;1273;140772;-64
2022/07/07 01:43:10;;;;;;;1.60;1.50;;;;;;;13.26;72.86;100074.63;213778;1274;143052;-61
2022/07/07 01:48:12;;;;;;;1.30;1.10;;;;;;;13.29;72.46;100076.17;213534;1274;140966;-63
2022/07/07 01:53:18;;;;;;;2.40;2.20;;;;;;;13.19;72.77;100075.85;213688;1274;141428;-64
2022/07/07 01:58:21;;;;;;;3.60;1.40;;;;;;;13.10;73.04;100072.54;213430;1274;141826;-64
2022/07/07 02:03:26;;;;;;;1.70;1.50;;;;;;;13.07;73.02;100069.80;214530;1273;141028;-64
2022/07/07 02:08:30;;;;;;;1.70;1.50;;;;;;;13.02;73.24;100066.77;216209;1274;142362;-64
2022/07/07 02:13:33;;;;;;;1.80;1.70;;;;;;;13.03;72.99;100063.55;215824;1274;141102;-62
2022/07/07 02:18:38;;;;;;;4.00;1.20;;;;;;;13.09;73.09;100066.05;215989;1274;142676;-64
2022/07/07 02:23:46;;;;;;;2.30;1.60;;;;;;;13.13;73.27;100063.44;216206;1274;141086;-65
2022/07/07 02:28:49;;;;;;;2.90;1.20;;;;;;;13.15;73.06;100065.27;216086;1273;140755;-62
2022/07/07 02:33:54;;;;;;;3.20;1.80;;;;;;;13.19;73.26;100059.52;214783;1274;1338296;-62
2022/07/07 02:38:56;;;;;;;1.40;1.30;;;;;;;13.30;73.09;100060.20;215140;1273;141006;-63
2022/07/07 02:43:59;;;;;;;5.20;1.90;;;;;;;13.37;72.77;100062.23;213670;1274;141113;-64
2022/07/07 02:49:01;;;;;;;10.50;2.00;;;;;;;13.39;72.94;100061.57;213807;1273;142796;-62
2022/07/07 02:54:04;;;;;;;9.10;1.50;;;;;;;13.44;72.98;100060.50;213590;1274;140596;-63
2022/07/07 02:59:06;;;;;;;19.20;2.00;;;;;;;13.44;73.06;100057.30;213972;1274;141526;-64
2022/07/07 03:04:09;;;;;;;5.70;1.50;;;;;;;13.42;72.99;100066.16;213890;1274;141464;-63
2022/07/07 03:09:13;;;;;;;6.10;2.40;;;;;;;13.34;72.81;100064.27;213612;1274;141454;-64
2022/07/07 03:14:16;;;;;;;1.50;1.40;;;;;;;13.33;72.82;100065.97;213519;1274;142157;-63
2022/07/07 03:19:19;;;;;;;2.40;2.30;;;;;;;13.29;72.84;100059.41;213554;1274;140019;-63
2022/07/07 03:24:21;;;;;;;1.70;1.60;;;;;;;13.31;73.33;100058.77;213813;1274;141353;-63
2022/07/07 03:29:25;;;;;;;1.70;1.50;;;;;;;13.33;73.28;100060.98;213792;1274;143558;-63
2022/07/07 03:34:27;;;;;;;4.80;1.90;;;;;;;13.33;73.00;100057.40;213531;1273;141272;-62
2022/07/07 03:39:30;;;;;;;7.30;1.90;;;;;;;13.40;73.46;100057.23;213573;1274;140879;-63
2022/07/07 03:44:32;;;;;;;3.80;2.70;;;;;;;13.53;73.58;100054.15;213883;1274;140068;-63
2022/07/07 03:49:35;;;;;;;2.20;1.80;;;;;;;13.61;73.30;100051.27;213755;1274;141192;-63
2022/07/07 03:54:38;;;;;;;4.10;2.40;;;;;;;13.74;73.28;100044.42;213685;1274;140846;-62
2022/07/07 03:59:41;;;;;;;1.50;1.40;;;;;;;13.86;73.14;100045.97;213743;1274;139810;-64
2022/07/07 04:04:45;;;;;;;2.60;2.40;;;;;;;13.96;72.92;100043.90;215513;1274;139427;-63
2022/07/07 04:09:48;;;;;;;2.80;1.70;;;;;;;14.04;73.10;100047.17;216030;1274;139486;-63
2022/07/07 04:14:50;;;;;;;3.80;2.10;;;;;;;14.15;73.07;100049.11;216151;1274;140480;-63
2022/07/07 04:19:53;;;;;;;6.30;3.10;;;;;;;14.30;73.07;100048.70;216215;1273;141744;-63
2022/07/07 04:24:56;;;;;;;5.80;3.50;;;;;;;14.36;72.41;100049.00;216339;1274;141229;-63
2022/07/07 04:29:59;;;;;;;3.80;2.30;;;;;;;14.48;72.42;100044.74;216415;1273;141623;-63
2022/07/07 04:35:02;;;;;;;8.20;3.10;;;;;;;14.64;72.06;100045.88;214614;1273;140350;-62
2022/07/07 04:40:06;;;;;;;2.70;2.40;;;;;;;14.77;71.61;100038.42;213572;1274;139618;-62
2022/07/07 04:45:09;;;;;;;4.00;3.30;;;;;;;14.80;71.05;100041.02;213939;1273;152988;-62
2022/07/07 04:50:13;;;;;;;3.10;2.80;;;;;;;14.82;70.89;100035.35;213429;1274;234072;-64
2022/07/07 04:55:16;;;;;;;4.90;2.70;;;;;;;14.82;70.73;100041.36;213521;1274;140763;-63
2022/07/07 05:00:19;;;;;;;6.80;3.40;;;;;;;14.91;70.66;100039.73;213421;1274;140511;-63
2022/07/07 05:05:22;;;;;;;6.50;3.00;;;;;;;15.06;70.86;100039.48;213759;1274;140165;-62
2022/07/07 05:10:25;;;;;;;5.60;2.80;;;;;;;15.31;70.38;100041.48;213655;1274;140114;-63
2022/07/07 05:15:28;;;;;;;4.90;2.60;;;;;;;15.51;70.13;100031.69;213555;1274;140043;-64
2022/07/07 05:20:32;;;;;;;10.30;3.10;;;;;;;15.73;70.02;100027.14;213754;1274;139845;-63
2022/07/07 05:25:35;;;;;;;4.00;2.60;;;;;;;16.01;69.38;100023.83;213580;1274;140078;-62
2022/07/07 05:30:38;;;;;;;3.50;2.40;;;;;;;16.40;68.74;100020.77;213522;1274;141023;-62
2022/07/07 05:35:41;;;;;;;2.50;2.20;;;;;;;17.03;68.24;100015.95;213667;1273;140492;-63
2022/07/07 05:40:45;;;;;;;4.50;2.50;;;;;;;17.71;66.90;100016.10;213660;1274;164008;-64
2022/07/07 05:45:47;;;;;;;6.70;2.40;;;;;;;18.93;65.34;100016.32;213686;1274;139745;-64
2022/07/07 05:50:50;;;;;;;4.40;1.80;;;;;;;20.85;63.04;100009.23;214047;1274;139572;-64
2022/07/07 05:55:52;;;;;;;2.10;1.90;;;;;;;23.60;59.28;100013.35;216235;1273;140138;-64
2022/07/07 06:00:54;;;;;;;2.30;2.10;;;;;;;25.21;55.75;100015.92;216248;1274;140794;-64
2022/07/07 06:05:59;;;;;;;2.20;1.80;;;;;;;26.18;53.52;100020.58;215666;1274;139814;-63
2022/07/07 06:11:01;;;;;;;4.70;1.80;;;;;;;27.24;51.00;100018.88;216397;1274;139487;-64
2022/07/07 06:16:04;;;;;;;5.50;1.90;;;;;;;26.93;48.85;100016.66;215952;1274;139895;-62
2022/07/07 06:21:10;;;;;;;3.80;1.50;;;;;;;27.20;47.45;100013.95;214297;1274;139623;-61
2022/07/07 06:26:13;;;;;;;3.90;1.50;;;;;;;26.83;46.66;100015.20;214278;1274;205200;-62
2022/07/07 06:31:15;;;;;;;5.10;1.50;;;;;;;26.91;46.25;100013.33;214347;1274;140348;-62
2022/07/07 06:36:17;;;;;;;1.40;1.20;;;;;;;28.59;45.66;100013.56;213644;1274;140198;-61
2022/07/07 06:41:23;;;;;;;1.00;1.00;;;;;;;30.55;43.41;100006.17;213415;1274;143398;-62
2022/07/07 06:46:25;;;;;;;1.50;0.90;;;;;;;32.04;40.60;100001.19;213380;1276;141145;-62
2022/07/07 06:51:28;;;;;;;1.10;0.70;;;;;;;32.58;38.84;99997.27;213464;1276;140004;-63
2022/07/07 06:56:32;;;;;;;0.70;0.70;;;;;;;33.45;36.93;99992.42;213560;1274;210838;-63
2022/07/07 07:01:34;;;;;;;2.30;0.70;;;;;;;34.27;35.54;99994.17;213490;1276;139129;-63
2022/07/07 07:06:36;;;;;;;1.10;0.70;;;;;;;34.60;33.76;100000.27;213673;1276;210118;-64
2022/07/07 07:11:38;;;;;;;0.30;0.20;;;;;;;34.68;32.72;99996.10;213491;1276;139275;-64
2022/07/07 07:16:41;;;;;;;0.80;0.50;;;;;;;35.20;31.99;99996.63;213705;1274;140114;-64
2022/07/07 07:21:43;;;;;;;4.80;1.00;;;;;;;35.48;30.96;99996.09;213646;1274;140267;-63
2022/07/07 07:26:51;;;;;;;1.10;0.60;;;;;;;35.77;30.17;99996.96;213421;1276;139455;-64
2022/07/07 07:31:54;;;;;;;0.30;0.30;;;;;;;35.05;29.89;99988.83;213560;1274;139319;-63
2022/07/07 07:36:57;;;;;;;0.20;0.20;;;;;;;34.04;30.02;99987.27;213644;1274;139309;-63
2022/07/07 07:41:59;;;;;;;3.70;0.30;;;;;;;33.43;29.96;99985.95;213989;1274;142145;-63
2022/07/07 07:47:02;;;;;;;0.20;0.20;;;;;;;32.72;30.16;99983.80;216108;1273;140386;-64
2022/07/07 07:52:05;;;;;;;5.60;0.60;;;;;;;31.69;30.35;99979.64;216356;1273;139883;-64
2022/07/07 07:57:11;;;;;;;2.50;0.80;;;;;;;30.92;30.88;99983.89;216219;1274;140380;-64
2022/07/07 08:02:13;;;;;;;2.40;0.40;;;;;;;29.86;31.06;99979.05;216048;1275;140714;-64
2022/07/07 08:07:14;;;;;;;1.30;0.60;;;;;;;29.10;31.66;99969.48;215976;1274;140692;-62
2022/07/07 08:12:16;;;;;;;2.70;0.80;;;;;;;28.37;32.56;99969.60;216233;1274;139535;-62
2022/07/07 08:17:23;;;;;;;1.20;0.60;;;;;;;28.37;33.64;99970.15;215232;1274;140453;-63
2022/07/07 08:22:25;;;;;;;2.20;0.70;;;;;;;28.04;33.67;99971.71;213554;1274;141668;-63
2022/07/07 08:27:27;;;;;;;3.60;0.60;;;;;;;27.85;34.42;99967.69;213370;1274;142109;-62
2022/07/07 08:32:30;;;;;;;1.50;0.50;;;;;;;27.96;34.40;99965.84;213390;1274;140231;-63
2022/07/07 08:37:32;;;;;;;0.70;0.70;;;;;;;27.90;34.45;99964.71;213306;1274;141230;-63
2022/07/07 08:42:36;;;;;;;0.80;0.40;;;;;;;28.03;35.12;99964.38;213377;1274;139940;-63
2022/07/07 08:47:42;;;;;;;2.00;0.60;;;;;;;28.28;34.93;99958.14;213682;1273;139974;-62
2022/07/07 08:52:54;;;;;;;2.20;1.10;;;;;;;28.14;34.15;99958.86;213598;1274;139517;-63
2022/07/07 08:57:58;;;;;;;2.50;0.90;;;;;;;27.95;33.68;99959.46;213449;1274;140011;-62
2022/07/07 09:03:03;;;;;;;4.10;0.90;;;;;;;27.64;34.06;99956.92;213333;1274;139201;-61
2022/07/07 09:08:22;;;;;;;6.00;0.90;;;;;;;27.63;34.13;99942.98;213436;1276;139248;-62
2022/07/07 09:13:30;;;;;;;1.10;0.40;;;;;;;27.09;33.84;99944.94;213724;1274;232550;-62
2022/07/07 09:18:35;;;;;;;1.40;0.50;;;;;;;26.92;34.36;99939.18;214201;1274;139298;-63
2022/07/07 09:23:54;;;;;;;1.00;0.70;;;;;;;27.33;34.45;99937.36;213720;1274;139044;-64
2022/07/07 09:28:58;;;;;;;2.00;0.70;;;;;;;27.36;34.01;99936.91;213856;1274;142220;-63
2022/07/07 09:34:13;;;;;;;2.10;1.00;;;;;;;26.68;33.59;99934.97;213494;1274;139270;-62
2022/07/07 09:39:16;;;;;;;4.70;1.20;;;;;;;25.81;34.17;99933.00;213620;1274;142191;-62
2022/07/07 09:44:21;;;;;;;0.60;0.60;;;;;;;25.60;35.11;99930.04;214489;1274;142969;-63
2022/07/07 09:49:24;;;;;;;0.90;0.80;;;;;;;25.88;35.03;99926.18;216394;1274;140722;-62
2022/07/07 09:54:27;;;;;;;1.50;0.90;;;;;;;25.47;34.60;99922.90;216489;1273;139574;-62
2022/07/07 09:59:30;;;;;;;1.20;1.00;;;;;;;24.90;34.57;99922.52;216395;1274;139814;-63
2022/07/07 10:04:35;;;;;;;0.90;0.70;;;;;;;24.69;34.88;99925.54;216415;1273;139774;-62
2022/07/07 10:09:42;;;;;;;4.50;0.80;;;;;;;24.76;35.38;99924.76;216275;1273;140061;-62
2022/07/07 10:14:49;;;;;;;0.50;0.50;;;;;;;24.93;35.79;99922.98;216260;1274;140174;-63
2022/07/07 10:19:53;;;;;;;0.60;0.60;;;;;;;24.93;35.20;99922.96;214432;1274;139977;-63
2022/07/07 10:25:00;;;;;;;1.90;0.70;;;;;;;24.70;35.49;99924.36;213729;1274;140229;-63
2022/07/07 10:30:07;;;;;;;5.00;0.80;;;;;;;24.86;36.14;99926.14;213979;1274;139985;-62
2022/07/07 10:35:14;;;;;;;1.30;0.70;;;;;;;25.02;36.02;99923.83;213889;1273;140306;-62
2022/07/07 10:40:26;;;;;;;0.70;0.70;;;;;;;24.81;35.27;99917.89;213786;1274;139734;-62
2022/07/07 10:45:32;;;;;;;3.60;1.10;;;;;;;25.18;35.76;99910.41;213731;1274;142318;-63
2022/07/07 10:50:34;;;;;;;1.10;0.60;;;;;;;25.45;35.62;99913.37;213932;1274;140136;-63
2022/07/07 10:55:56;;;;;;;1.00;0.70;;;;;;;25.37;35.86;99909.18;213552;1274;141372;-63
2022/07/07 11:01:08;;;;;;;0.80;0.60;;;;;;;25.33;35.95;99908.41;213427;1273;140852;-62
2022/07/07 11:06:11;;;;;;;6.50;0.90;;;;;;;25.26;35.97;99915.43;213570;1274;205343;-63
2022/07/07 11:11:14;;;;;;;1.30;1.10;;;;;;;24.89;35.73;99913.02;213634;1273;140569;-63
2022/07/07 11:16:27;;;;;;;1.40;0.80;;;;;;;24.46;35.94;99916.61;213307;1274;140525;-63
2022/07/07 11:21:39;;;;;;;3.70;1.00;;;;;;;24.10;36.37;99913.83;213221;1273;140651;-64
2022/07/07 11:26:56;;;;;;;1.10;1.00;;;;;;;24.01;36.54;99912.48;213681;1274;139214;-64
2022/07/07 11:32:02;;;;;;;4.20;0.70;;;;;;;24.39;36.83;99905.09;213656;1273;140566;-64
2022/07/07 11:37:18;;;;;;;1.80;1.00;;;;;;;24.75;36.92;99899.02;216119;1274;139739;-65
2022/07/07 11:42:21;;;;;;;2.70;1.00;;;;;;;25.21;37.20;99898.38;216261;1273;140100;-64
2022/07/07 11:47:24;;;;;;;1.20;1.00;;;;;;;25.60;36.46;99896.35;216276;1274;139037;-64
2022/07/07 11:52:26;;;;;;;3.00;0.50;;;;;;;26.04;35.88;99896.33;216136;1274;139459;-65
2022/07/07 11:57:37;;;;;;;1.70;0.90;;;;;;;26.74;35.53;99891.20;215844;1273;139466;-64
2022/07/07 12:02:41;;;;;;;0.60;0.60;;;;;;;26.61;34.76;99890.77;216187;1274;139855;-64
2022/07/07 12:07:51;;;;;;;1.60;0.50;;;;;;;26.41;34.55;99889.13;216191;1274;140337;-65
2022/07/07 12:12:55;;;;;;;1.40;1.00;;;;;;;26.36;34.47;99880.52;214056;1274;139339;-64
2022/07/07 12:17:58;;;;;;;1.00;0.90;;;;;;;26.47;34.73;99879.52;214243;1274;139406;-62
2022/07/07 12:23:02;;;;;;;0.60;0.50;;;;;;;26.37;34.12;99877.20;213666;1273;139930;-63
2022/07/07 12:28:06;;;;;;;4.10;1.00;;;;;;;26.24;33.95;99873.48;213780;1274;139118;-63
2022/07/07 12:33:09;;;;;;;1.70;0.90;;;;;;;26.18;34.38;99875.52;213371;1274;139241;-64
2022/07/07 12:38:12;;;;;;;1.30;0.80;;;;;;;26.03;34.05;99877.39;213315;1274;139592;-62
2022/07/07 12:43:17;;;;;;;2.70;0.70;;;;;;;25.72;34.15;99867.57;213564;1274;140224;-62
2022/07/07 12:48:20;;;;;;;0.90;0.90;;;;;;;25.55;34.59;99865.67;213438;1273;139179;-63
2022/07/07 12:53:26;;;;;;;1.00;1.00;;;;;;;25.59;34.66;99865.42;213323;1274;139337;-63
2022/07/07 12:58:28;;;;;;;2.90;0.70;;;;;;;25.54;35.04;99867.95;213513;1274;141424;-63
2022/07/07 13:03:34;;;;;;;4.10;1.20;;;;;;;25.54;35.25;99871.14;213351;1273;149883;-62
2022/07/07 13:08:36;;;;;;;1.70;1.20;;;;;;;25.40;35.28;99870.45;213220;1274;139759;-63
2022/07/07 13:13:39;;;;;;;2.90;1.00;;;;;;;25.36;35.72;99870.23;213004;1273;141475;-63
2022/07/07 13:19:02;;;;;;;1.10;0.90;;;;;;;25.33;35.57;99866.13;213541;1274;139241;-64
2022/07/07 13:24:06;;;;;;;2.30;1.30;;;;;;;25.22;35.50;99862.40;213306;1274;139980;-62
2022/07/07 13:29:09;;;;;;;2.60;1.60;;;;;;;25.07;35.86;99860.89;213299;1274;139905;-63
2022/07/07 13:34:12;;;;;;;1.40;1.20;;;;;;;25.10;35.95;99856.64;213536;1274;139315;-64
2022/07/07 13:39:15;;;;;;;4.60;2.20;;;;;;;24.89;36.10;99857.45;215944;1274;141198;-64
2022/07/07 13:44:17;;;;;;;2.00;0.90;;;;;;;24.73;36.28;99852.17;216024;1273;141336;-63
2022/07/07 13:49:20;;;;;;;1.60;0.90;;;;;;;24.52;36.47;99852.33;216161;1274;140297;-64
2022/07/07 13:54:26;;;;;;;2.50;1.00;;;;;;;24.34;36.81;99853.66;216174;1274;140797;-65
2022/07/07 13:59:29;;;;;;;;;;;;;;;24.25;37.15;99851.54;216142;1274;142136;-65
2022/07/07 14:04:31;;;;;;;1.60;1.00;;;;;;;24.09;36.76;99848.35;216838;1273;126219;-65
2022/07/07 14:09:34;;;;;;;3.30;1.20;;;;;;;24.07;36.92;99848.63;215847;1274;161603;-65
2022/07/07 14:14:37;;;;;;;1.10;1.00;;;;;;;24.11;37.02;99844.08;213796;1274;139893;-64
2022/07/07 14:19:40;;;;;;;2.30;1.30;;;;;;;24.42;37.43;99840.85;214052;1273;162617;-63
2022/07/07 14:24:44;;;;;;;1.30;1.20;;;;;;;24.73;37.58;99838.42;213568;1274;144348;-62
2022/07/07 14:29:49;;;;;;;1.40;1.30;;;;;;;24.88;37.42;99835.92;213626;1274;142752;-64
2022/07/07 14:34:55;;;;;;;2.10;0.70;;;;;;;25.01;37.66;99831.63;213287;1274;454202;-63
2022/07/07 14:39:59;;;;;;;1.10;0.90;;;;;;;25.13;36.71;99827.06;213468;1274;140555;-65
2022/07/07 14:45:02;;;;;;;1.30;1.10;;;;;;;25.03;37.09;99827.73;213661;1273;140698;-63
2022/07/07 14:50:05;;;;;;;1.70;1.00;;;;;;;24.91;37.02;99832.29;213619;1273;140220;-63
2022/07/07 14:55:08;;;;;;;1.00;0.90;;;;;;;24.92;37.14;99833.27;213791;1274;140626;-64
2022/07/07 15:00:11;;;;;;;1.20;0.80;;;;;;;24.89;36.88;99837.10;213448;1274;141038;-64
2022/07/07 15:05:13;;;;;;;1.30;0.80;;;;;;;24.84;36.85;99833.88;213375;1273;140900;-63
2022/07/07 15:10:16;;;;;;;4.80;1.10;;;;;;;24.80;37.29;99833.02;213546;1273;141404;-62
2022/07/07 15:15:19;;;;;;;2.00;0.90;;;;;;;24.73;36.90;99834.73;212934;1274;140481;-63
2022/07/07 15:20:21;;;;;;;1.00;1.00;;;;;;;24.49;36.67;99835.55;213965;1274;151194;-62
2022/07/07 15:25:27;;;;;;;1.50;1.20;;;;;;;24.29;36.69;99829.84;213372;1274;139803;-63
2022/07/07 15:30:32;;;;;;;1.00;1.00;;;;;;;24.21;37.01;99830.64;214532;1274;139493;-62
2022/07/07 15:35:40;;;;;;;0.90;0.90;;;;;;;24.06;37.46;99829.89;215991;1274;141353;-64
2022/07/07 15:40:46;;;;;;;1.40;1.30;;;;;;;24.13;38.06;99827.59;214879;1275;139560;-64
2022/07/07 15:45:50;;;;;;;3.50;1.50;;;;;;;24.18;38.12;99828.64;215480;1276;139850;-62
2022/07/07 15:50:53;;;;;;;3.00;1.40;;;;;;;24.20;37.92;99830.59;215822;1274;139459;-62
2022/07/07 15:56:05;;;;;;;1.20;0.90;;;;;;;24.20;37.82;99833.22;215995;1276;140454;-64
2022/07/07 16:01:09;;;;;;;1.00;1.00;;;;;;;24.07;37.73;99836.88;216176;1276;139810;-64
2022/07/07 16:06:11;;;;;;;8.90;1.30;;;;;;;23.91;37.93;99834.75;214674;1276;139724;-64
2022/07/07 16:11:14;;;;;;;2.30;1.20;;;;;;;23.78;38.43;99832.66;213776;1276;138956;-61
2022/07/07 16:16:16;;;;;;;1.80;1.00;;;;;;;23.63;38.48;99832.09;213184;1276;139966;-62
2022/07/07 16:21:19;;;;;;;4.00;1.40;;;;;;;23.39;38.57;99833.18;213227;1275;210460;-62
2022/07/07 16:26:23;;;;;;;3.70;1.10;;;;;;;23.11;39.19;99833.02;213474;1276;139707;-60
2022/07/07 16:31:27;;;;;;;1.10;1.10;;;;;;;22.83;39.57;99839.45;213709;1276;140337;-66
2022/07/07 16:36:31;;;;;;;6.10;2.20;;;;;;;22.60;39.88;99848.02;212985;1276;139228;-62
2022/07/07 16:41:34;;;;;;;2.00;1.70;;;;;;;22.48;40.38;99850.48;213119;1276;139525;-61
2022/07/07 16:46:38;;;;;;;6.60;1.90;;;;;;;22.46;40.96;99848.97;213239;1276;139813;-64
2022/07/07 16:51:45;;;;;;;2.00;1.80;;;;;;;22.46;41.48;99850.77;213488;1274;140249;-63
2022/07/07 16:56:48;;;;;;;4.20;1.80;;;;;;;22.39;42.08;99847.07;213412;1275;140035;-64
2022/07/07 17:01:51;;;;;;;2.60;1.50;;;;;;;22.30;42.09;99851.27;213434;1275;140201;-64
2022/07/07 17:06:54;;;;;;;5.20;1.70;;;;;;;22.20;42.40;99852.16;213323;1276;140660;-64
2022/07/07 17:11:56;;;;;;;2.60;1.50;;;;;;;22.06;42.40;99856.02;213494;1276;140220;-63
2022/07/07 17:17:05;;;;;;;4.20;1.50;;;;;;;21.97;42.57;99856.35;213152;1276;139902;-65
2022/07/07 17:22:08;;;;;;;10.40;2.00;;;;;;;21.86;42.65;99858.86;213243;1275;141332;-64
2022/07/07 17:27:11;;;;;;;2.40;1.30;;;;;;;21.73;42.82;99856.92;213435;1277;141212;-64
2022/07/07 17:32:15;;;;;;;4.30;1.80;;;;;;;21.63;43.18;99860.95;215129;1276;141291;-65
2022/07/07 17:37:18;;;;;;;2.60;1.20;;;;;;;21.57;43.45;99863.15;216090;1274;140795;-64
2022/07/07 17:42:21;;;;;;;1.20;1.10;;;;;;;21.49;43.83;99864.28;216139;1275;142165;-64
2022/07/07 17:47:24;;;;;;;3.30;1.70;;;;;;;21.37;44.17;99866.78;215902;1273;139860;-64
2022/07/07 17:52:28;;;;;;;2.80;1.30;;;;;;;21.28;44.91;99859.36;215735;1277;152054;-64
2022/07/07 17:57:33;;;;;;;1.90;1.50;;;;;;;21.21;45.03;99859.77;215662;1277;140507;-64
2022/07/07 18:02:35;;;;;;;10.70;2.60;;;;;;;21.13;45.86;99859.36;213729;1276;139491;-63
2022/07/07 18:07:37;;;;;;;4.10;2.00;;;;;;;21.03;45.89;99860.00;213503;1275;141103;-65
2022/07/07 18:12:40;;;;;;;2.60;1.80;;;;;;;20.93;46.55;99859.59;213369;1274;139508;-64
2022/07/07 18:17:43;;;;;;;1.80;1.60;;;;;;;20.81;47.33;99861.39;213354;1274;140126;-64
2022/07/07 18:22:48;;;;;;;4.30;2.50;;;;;;;20.67;48.06;99862.52;213330;1275;141295;-64
2022/07/07 18:27:51;;;;;;;2.90;1.60;;;;;;;20.54;49.33;99867.55;213382;1274;139405;-64
2022/07/07 18:32:54;;;;;;;2.20;1.60;;;;;;;20.40;49.96;99872.13;213509;1275;139270;-65
2022/07/07 18:37:57;;;;;;;6.40;2.20;;;;;;;20.27;50.39;99869.39;213368;1275;140422;-64
2022/07/07 18:43:00;;;;;;;6.30;1.70;;;;;;;20.15;51.04;99872.08;213600;1274;139412;-64
2022/07/07 18:48:06;;;;;;;2.40;2.00;;;;;;;20.03;51.63;99875.40;213534;1276;139742;-64
2022/07/07 18:53:12;;;;;;;4.10;2.00;;;;;;;19.88;52.47;99879.66;213399;1276;139335;-65
2022/07/07 18:58:16;;;;;;;1.70;1.60;;;;;;;19.77;53.25;99885.61;213495;1275;141695;-64
2022/07/07 19:03:22;;;;;;;2.00;1.80;;;;;;;19.62;53.75;99892.40;213628;1275;139763;-65
2022/07/07 19:08:25;;;;;;;2.70;1.80;;;;;;;19.44;53.71;99899.96;213555;1275;140328;-64
2022/07/07 19:13:28;;;;;;;2.10;2.00;;;;;;;19.19;54.25;99907.45;213513;1275;139541;-67
2022/07/07 19:18:32;;;;;;;2.50;2.20;;;;;;;19.04;54.81;99913.70;213780;1275;138993;-64
2022/07/07 19:23:35;;;;;;;2.40;2.20;;;;;;;18.90;55.44;99921.91;213713;1275;140197;-65
2022/07/07 19:28:38;;;;;;;2.60;2.40;;;;;;;18.80;56.19;99932.42;214128;1274;139014;-65
2022/07/07 19:33:40;;;;;;;2.80;2.00;;;;;;;18.78;57.03;99936.00;216314;1274;139648;-65
2022/07/07 19:38:44;;;;;;;6.10;2.40;;;;;;;18.71;57.76;99940.64;216069;1274;139851;-65
2022/07/07 19:43:47;;;;;;;2.60;2.00;;;;;;;18.67;58.15;99943.97;216207;1274;140375;-65
2022/07/07 19:48:50;;;;;;;3.90;2.30;;;;;;;18.71;58.51;99950.80;216180;1274;140043;-65
2022/07/07 19:53:53;;;;;;;6.60;2.50;;;;;;;18.72;58.78;99949.34;216122;1274;140390;-65
2022/07/07 19:58:56;;;;;;;4.00;2.10;;;;;;;18.69;59.00;99955.78;216111;1277;141392;-65
2022/07/07 20:04:21;;;;;;;2.60;2.30;;;;;;;18.62;59.07;99958.33;215903;1276;140433;-65
2022/07/07 20:09:25;;;;;;;4.50;2.50;;;;;;;18.47;59.37;99959.50;214415;1277;140478;-65
2022/07/07 20:14:29;;;;;;;2.60;2.40;;;;;;;18.33;60.34;99961.98;213911;1274;140114;-65
2022/07/07 20:19:33;;;;;;;2.60;1.90;;;;;;;18.30;60.97;99965.56;213860;1274;232358;-65
2022/07/07 20:24:40;;;;;;;2.70;2.50;;;;;;;18.29;61.47;99967.35;213414;1275;139173;-65
2022/07/07 20:29:42;;;;;;;2.60;2.40;;;;;;;18.29;61.78;99967.95;213753;1275;140728;-65
2022/07/07 20:34:46;;;;;;;3.40;2.50;;;;;;;18.27;61.98;99965.42;213257;1274;140228;-65
2022/07/07 20:39:49;;;;;;;2.30;2.10;;;;;;;18.13;62.15;99969.38;213500;1274;140111;-64
2022/07/07 20:44:52;;;;;;;3.90;2.60;;;;;;;17.95;63.03;99972.13;213867;1274;143070;-66
2022/07/07 20:49:56;;;;;;;4.20;2.70;;;;;;;17.91;63.55;99978.18;213588;1274;231935;-65
2022/07/07 20:55:00;;;;;;;2.90;2.70;;;;;;;17.94;63.53;99982.48;213494;1274;140539;-66
2022/07/07 21:00:03;;;;;;;5.70;2.90;;;;;;;17.90;63.47;99981.31;213516;1276;139447;-66
2022/07/07 21:05:13;;;;;;;4.50;2.40;;;;;;;17.83;63.66;99982.09;213235;1276;139461;-65
2022/07/07 21:10:20;;;;;;;2.50;2.30;;;;;;;17.80;63.83;99987.66;213402;1276;139753;-65
2022/07/07 21:15:24;;;;;;;3.70;2.50;;;;;;;17.72;63.88;99987.59;213297;1276;139857;-64
2022/07/07 21:20:26;;;;;;;6.50;2.90;;;;;;;17.66;63.80;99989.51;213812;1276;210755;-64
2022/07/07 21:25:28;;;;;;;3.10;2.90;;;;;;;17.58;63.81;99995.70;213286;1276;141399;-65
2022/07/07 21:30:31;;;;;;;2.80;2.40;;;;;;;17.44;64.27;99998.10;213528;1276;139498;-65
2022/07/07 21:35:34;;;;;;;2.20;2.10;;;;;;;17.42;64.89;100009.16;215897;1276;139767;-66
2022/07/07 21:40:41;;;;;;;5.80;2.10;;;;;;;17.33;64.86;100014.04;215993;1276;141414;-66
2022/07/07 21:45:46;;;;;;;4.80;2.10;;;;;;;17.34;64.95;100022.83;215739;1277;141316;-66
2022/07/07 21:50:51;;;;;;;2.10;2.00;;;;;;;17.36;64.88;100027.46;215989;1276;140520;-66
2022/07/07 21:55:54;;;;;;;2.70;2.50;;;;;;;17.36;64.94;100032.31;216075;1276;140601;-66
2022/07/07 22:00:56;;;;;;;3.40;1.80;;;;;;;17.29;64.97;100035.33;216450;1274;140136;-66
2022/07/07 22:11:21;;;;;;;8.10;2.90;;;;;;;17.30;65.10;100042.33;213499;1274;140192;-65
2022/07/07 22:16:24;;;;;;;5.20;2.70;;;;;;;17.32;65.01;100045.30;213665;1274;141194;-65
2022/07/07 22:21:27;;;;;;;3.20;2.40;;;;;;;17.32;65.21;100047.07;213745;1274;140910;-65
2022/07/07 22:26:31;;;;;;;2.40;1.80;;;;;;;17.30;65.20;100051.06;213703;1274;139759;-65
2022/07/07 22:31:33;;;;;;;2.70;2.30;;;;;;;17.23;65.20;100054.08;213661;1274;139400;-65
2022/07/07 22:36:36;;;;;;;4.60;2.00;;;;;;;17.16;65.31;100057.73;213321;1274;139559;-64
2022/07/07 22:41:40;;;;;;;3.80;2.30;;;;;;;17.14;65.49;100061.73;213718;1277;140377;-65
2022/07/07 22:46:42;;;;;;;2.00;1.90;;;;;;;17.14;65.58;100065.27;213616;1274;139910;-66
2022/07/07 22:51:46;;;;;;;2.40;1.90;;;;;;;17.11;65.48;100067.77;213417;1274;141453;-64
2022/07/07 22:56:48;;;;;;;2.60;2.30;;;;;;;17.02;65.43;100074.94;213651;1274;141832;-64
2022/07/07 23:01:53;;;;;;;5.30;2.40;;;;;;;16.95;65.42;100080.09;213961;1274;139652;-65
2022/07/07 23:06:56;;;;;;;4.10;2.00;;;;;;;16.89;65.47;100079.33;213359;1274;139816;-64
2022/07/07 23:11:59;;;;;;;3.80;2.10;;;;;;;16.84;65.83;100082.94;213485;1274;140030;-64
2022/07/07 23:17:02;;;;;;;2.60;2.40;;;;;;;16.84;65.98;100085.19;213536;1272;141109;-64